Time;durP1;ratioP1;P1;durP2;ratioP2;P2;SDS_P1;SDS_P2;PMS_P1;PMS_P2;Temp;Humidity;BMP_temperature;BMP_pressure;BME280_temperature;BME280_humidity;BME280_pressure;Samples;Min_cycle;Max_cycle;Signal;HPM_P1;HPM_P2
2023/12/18 00:00:19;;;;;;;21.08;13.40;;;;;;;4.98;92.11;100403.81;5043607;28;20033;-80
2023/12/18 00:02:44;;;;;;;17.83;11.75;;;;;;;4.81;92.78;100404.88;5008298;28;20037;-80
2023/12/18 00:05:10;;;;;;;18.80;13.25;;;;;;;4.64;93.14;100392.75;5045356;28;20071;-80
2023/12/18 00:07:35;;;;;;;17.90;12.18;;;;;;;4.88;92.86;100379.41;5026432;28;20025;-80
2023/12/18 00:10:00;;;;;;;19.15;12.77;;;;;;;4.75;92.58;100381.78;4990792;28;20470;-80
2023/12/18 00:12:26;;;;;;;22.05;13.10;;;;;;;5.02;92.88;100386.56;5004193;28;20083;-80
2023/12/18 00:14:52;;;;;;;20.60;12.52;;;;;;;4.89;92.31;100361.72;5003903;28;20029;-80
2023/12/18 00:17:17;;;;;;;18.73;12.23;;;;;;;4.93;91.50;100370.94;5042739;28;20094;-81
2023/12/18 00:19:43;;;;;;;17.83;12.43;;;;;;;4.90;92.69;100376.56;5008737;28;20028;-80
2023/12/18 00:22:08;;;;;;;20.35;13.35;;;;;;;4.87;92.52;100361.06;5028143;28;20033;-80
2023/12/18 00:24:33;;;;;;;18.77;12.90;;;;;;;4.74;93.61;100381.97;4997672;28;20029;-80
2023/12/18 00:26:59;;;;;;;16.50;10.90;;;;;;;4.88;92.66;100368.00;5022334;28;20119;-81
2023/12/18 00:29:24;;;;;;;16.08;11.77;;;;;;;4.86;93.07;100385.84;5006474;28;20106;-81
2023/12/18 00:31:49;;;;;;;17.17;11.48;;;;;;;4.86;92.46;100370.81;5023833;28;20106;-80
2023/12/18 00:34:15;;;;;;;19.20;11.88;;;;;;;5.08;91.97;100382.41;5022390;28;20040;-80
2023/12/18 00:36:42;;;;;;;20.13;11.40;;;;;;;4.90;92.56;100389.81;5032004;28;20040;-80
2023/12/18 00:39:07;;;;;;;16.15;10.68;;;;;;;4.72;92.89;100354.88;5031135;28;20037;-81
2023/12/18 00:41:32;;;;;;;15.38;11.48;;;;;;;5.03;92.80;100380.31;5008067;28;20404;-80
2023/12/18 00:43:58;;;;;;;16.02;11.20;;;;;;;5.01;92.58;100373.53;5030129;28;20532;-80
2023/12/18 00:46:25;;;;;;;18.30;11.23;;;;;;;5.03;92.48;100376.81;5005769;28;20493;-81
2023/12/18 00:48:51;;;;;;;17.25;11.00;;;;;;;4.99;92.18;100363.13;5044300;28;20098;-80
2023/12/18 00:51:16;;;;;;;14.65;10.07;;;;;;;5.02;91.98;100360.13;5041783;28;20033;-80
2023/12/18 00:53:41;;;;;;;13.43;9.52;;;;;;;4.89;91.58;100354.56;5028676;28;20040;-80
2023/12/18 00:56:07;;;;;;;17.33;11.50;;;;;;;4.77;92.51;100348.06;5027490;28;20093;-80
2023/12/18 00:58:32;;;;;;;15.65;10.63;;;;;;;4.74;92.68;100337.00;4998534;28;20030;-80
2023/12/18 01:00:57;;;;;;;20.05;11.48;;;;;;;4.94;92.34;100340.81;5012351;28;20021;-80
2023/12/18 01:03:23;;;;;;;16.42;11.45;;;;;;;4.99;92.32;100349.91;5013021;28;20157;-80
2023/12/18 01:05:48;;;;;;;14.43;11.10;;;;;;;4.84;92.93;100345.53;5016821;28;20104;-80
2023/12/18 01:08:13;;;;;;;18.17;11.05;;;;;;;4.85;92.50;100363.88;5015059;28;20041;-80
2023/12/18 01:10:39;;;;;;;15.57;11.02;;;;;;;4.63;93.31;100347.97;5031868;28;20096;-80
2023/12/18 01:13:04;;;;;;;16.75;11.10;;;;;;;4.61;94.13;100356.06;5011252;28;20029;-80
2023/12/18 01:15:29;;;;;;;15.27;10.73;;;;;;;4.47;93.66;100352.34;5027956;28;20048;-80
2023/12/18 01:17:55;;;;;;;18.75;12.13;;;;;;;4.79;93.56;100345.22;5026154;28;20064;-80
2023/12/18 01:20:20;;;;;;;17.45;10.93;;;;;;;4.79;92.62;100338.13;5030730;28;20024;-80
2023/12/18 01:22:45;;;;;;;16.25;11.13;;;;;;;4.74;91.67;100337.00;5013513;28;20037;-80
2023/12/18 01:25:11;;;;;;;17.88;11.57;;;;;;;4.75;92.33;100344.75;5028738;28;20052;-80
2023/12/18 01:27:36;;;;;;;18.30;10.90;;;;;;;4.58;93.12;100351.16;5031001;28;20032;-80
2023/12/18 01:30:02;;;;;;;21.00;11.70;;;;;;;4.48;92.40;100322.25;5030722;28;20025;-81
2023/12/18 01:32:27;;;;;;;17.88;10.88;;;;;;;4.64;93.06;100310.78;5013929;28;20341;-80
2023/12/18 01:34:52;;;;;;;16.83;11.55;;;;;;;4.49;92.31;100323.94;5044609;28;20029;-80
2023/12/18 01:37:18;;;;;;;20.15;12.18;;;;;;;4.60;93.34;100338.56;5012415;28;20030;-80
2023/12/18 01:39:43;;;;;;;16.05;11.38;;;;;;;4.51;93.40;100329.84;5047219;28;20491;-80
2023/12/18 01:42:09;;;;;;;16.25;11.85;;;;;;;4.59;93.79;100326.34;5012253;28;20095;-80
2023/12/18 01:44:34;;;;;;;17.20;12.13;;;;;;;4.70;92.11;100303.94;5028400;28;20025;-80
2023/12/18 01:47:00;;;;;;;16.38;11.00;;;;;;;4.61;91.60;100282.03;5029765;28;20396;-80
2023/12/18 01:49:25;;;;;;;15.77;11.07;;;;;;;4.59;91.74;100297.25;5028881;28;20029;-80
2023/12/18 01:51:51;;;;;;;17.83;11.80;;;;;;;4.75;91.96;100322.78;5012008;28;20181;-81
2023/12/18 01:54:19;;;;;;;15.98;12.10;;;;;;;4.62;91.95;100327.81;5041096;28;20036;-80
2023/12/18 01:56:45;;;;;;;17.77;10.70;;;;;;;4.70;92.19;100333.03;5047265;28;20029;-80
2023/12/18 01:59:11;;;;;;;18.88;11.75;;;;;;;4.76;91.29;100340.31;5049460;28;20622;-80
2023/12/18 02:01:37;;;;;;;18.67;12.40;;;;;;;4.63;91.58;100358.56;5041987;28;20092;-80
2023/12/18 02:04:03;;;;;;;15.23;11.80;;;;;;;4.75;91.50;100358.00;5014390;28;20037;-80
2023/12/18 02:06:28;;;;;;;18.42;12.55;;;;;;;4.41;90.66;100333.72;5035098;28;20391;-80
2023/12/18 02:08:56;;;;;;;16.35;10.77;;;;;;;4.68;91.02;100342.97;5027869;28;20543;-80
2023/12/18 02:11:22;;;;;;;17.52;11.15;;;;;;;4.32;91.50;100334.75;5032141;28;20031;-80
2023/12/18 02:13:48;;;;;;;18.35;12.85;;;;;;;4.58;91.66;100345.84;5014408;28;20036;-80
2023/12/18 02:16:13;;;;;;;18.67;12.30;;;;;;;4.71;91.33;100354.03;5028456;28;20032;-80
2023/12/18 02:18:43;;;;;;;19.40;12.77;;;;;;;4.37;91.97;100338.50;5026975;28;20029;-81
2023/12/18 02:21:09;;;;;;;18.73;12.65;;;;;;;4.52;91.45;100354.47;5029038;28;20037;-80
2023/12/18 02:23:34;;;;;;;20.00;11.82;;;;;;;4.10;92.75;100344.25;5028557;28;20327;-80
2023/12/18 02:25:59;;;;;;;18.52;12.15;;;;;;;4.23;91.50;100347.16;5035916;28;20029;-81
2023/12/18 02:28:25;;;;;;;16.67;11.02;;;;;;;4.41;91.50;100350.38;5052497;28;20078;-80
2023/12/18 02:30:51;;;;;;;23.02;14.23;;;;;;;4.11;90.75;100343.22;5035560;28;20331;-80
2023/12/18 02:33:16;;;;;;;20.30;12.77;;;;;;;3.77;92.01;100324.19;5035500;28;20029;-80
2023/12/18 02:35:41;;;;;;;20.55;12.80;;;;;;;4.29;92.52;100353.56;5047892;28;20938;-80
2023/12/18 02:38:07;;;;;;;21.92;14.95;;;;;;;3.98;91.08;100334.19;4999868;28;20039;-80
2023/12/18 02:40:32;;;;;;;25.67;14.55;;;;;;;3.95;91.52;100308.13;5045814;28;20120;-80
2023/12/18 02:42:58;;;;;;;25.20;15.88;;;;;;;3.48;92.89;100331.81;5032670;28;20040;-81
2023/12/18 02:45:23;;;;;;;19.50;12.27;;;;;;;4.32;92.27;100330.28;5014215;28;20036;-80
2023/12/18 02:47:48;;;;;;;20.10;14.00;;;;;;;4.50;91.66;100324.72;5018149;28;20501;-80
2023/12/18 02:50:15;;;;;;;25.88;15.23;;;;;;;4.35;90.88;100307.94;5011817;28;20035;-80
2023/12/18 02:52:40;;;;;;;18.25;12.00;;;;;;;4.67;90.59;100304.31;5050001;28;20388;-80
2023/12/18 02:55:07;;;;;;;24.42;14.70;;;;;;;4.50;90.27;100328.19;5032907;28;20025;-81
2023/12/18 02:57:32;;;;;;;22.42;14.68;;;;;;;4.55;90.18;100317.94;5045630;28;20035;-80
2023/12/18 02:59:57;;;;;;;20.35;12.48;;;;;;;4.47;91.24;100312.69;5009864;28;20034;-80
2023/12/18 03:02:23;;;;;;;27.17;16.48;;;;;;;4.27;91.20;100308.84;5048676;28;20028;-80
2023/12/18 03:04:48;;;;;;;22.48;14.02;;;;;;;4.62;90.79;100317.22;5014720;28;20021;-81
2023/12/18 03:07:14;;;;;;;27.38;14.98;;;;;;;4.53;90.23;100322.56;5050470;28;20025;-80
2023/12/18 03:09:39;;;;;;;25.48;14.38;;;;;;;4.64;90.47;100328.47;5032982;28;20537;-80
2023/12/18 03:12:05;;;;;;;24.27;14.77;;;;;;;4.59;90.72;100321.03;5035572;28;20025;-80
2023/12/18 03:14:30;;;;;;;20.75;14.15;;;;;;;4.48;91.15;100318.78;5033062;28;20040;-80
2023/12/18 03:16:55;;;;;;;21.83;14.05;;;;;;;4.83;90.27;100326.19;5010493;28;20119;-81
2023/12/18 03:19:21;;;;;;;21.35;14.05;;;;;;;4.80;90.02;100310.69;5049880;28;20041;-80
2023/12/18 03:21:46;;;;;;;25.35;15.48;;;;;;;4.79;90.68;100318.78;5008727;28;20036;-80
2023/12/18 03:24:12;;;;;;;22.75;13.38;;;;;;;4.83;89.80;100322.72;5016797;28;20079;-80
2023/12/18 03:26:37;;;;;;;19.60;13.38;;;;;;;4.74;89.85;100313.22;5016454;28;20029;-80
2023/12/18 03:29:03;;;;;;;23.92;14.55;;;;;;;4.81;89.90;100317.59;5048595;28;20033;-80
2023/12/18 03:31:28;;;;;;;26.67;14.55;;;;;;;4.59;90.12;100302.53;5010873;28;20052;-80
2023/12/18 03:33:54;;;;;;;23.98;15.52;;;;;;;4.63;90.02;100295.09;5030333;28;20029;-80
2023/12/18 03:36:19;;;;;;;25.88;15.35;;;;;;;4.69;90.20;100326.13;5024668;28;20046;-80
2023/12/18 03:38:44;;;;;;;22.73;14.65;;;;;;;4.43;91.14;100315.88;5049983;28;20587;-79
2023/12/18 03:41:10;;;;;;;25.95;14.52;;;;;;;4.70;89.75;100306.59;4999002;28;20037;-80
2023/12/18 03:43:35;;;;;;;22.20;13.50;;;;;;;4.78;89.31;100312.69;4998942;28;20093;-80
2023/12/18 03:46:01;;;;;;;21.80;14.25;;;;;;;4.58;89.93;100306.19;4997463;28;20066;-80
2023/12/18 03:48:27;;;;;;;21.25;13.45;;;;;;;4.62;89.59;100290.78;5030491;28;20021;-80
2023/12/18 03:50:52;;;;;;;23.48;14.07;;;;;;;4.77;89.40;100292.50;5033685;28;20020;-80
2023/12/18 03:53:17;;;;;;;24.45;14.25;;;;;;;4.86;89.52;100322.38;5030690;28;20044;-80
2023/12/18 03:55:43;;;;;;;26.88;15.23;;;;;;;4.65;90.19;100312.44;5044623;28;20036;-79
2023/12/18 03:58:08;;;;;;;26.63;14.63;;;;;;;4.56;90.15;100310.84;5010962;28;20132;-80
2023/12/18 04:00:34;;;;;;;21.52;13.05;;;;;;;4.61;89.84;100319.03;5013867;28;20032;-80
2023/12/18 04:03:02;;;;;;;19.75;13.63;;;;;;;4.66;89.11;100302.66;5000115;28;20036;-80
2023/12/18 04:05:27;;;;;;;20.02;13.70;;;;;;;4.63;90.50;100308.31;5048430;28;20452;-80
2023/12/18 04:07:52;;;;;;;24.67;13.55;;;;;;;4.34;91.19;100307.16;5014603;28;20056;-80
2023/12/18 04:10:18;;;;;;;26.60;14.10;;;;;;;4.50;90.12;100307.06;5014532;28;20106;-80
2023/12/18 04:12:43;;;;;;;25.90;15.45;;;;;;;4.22;90.46;100316.44;5031273;28;20136;-79
2023/12/18 04:15:09;;;;;;;51.15;16.58;;;;;;;4.56;90.07;100310.84;5043422;28;20111;-80
2023/12/18 04:17:35;;;;;;;23.13;14.13;;;;;;;4.59;90.06;100310.47;5014203;28;20036;-80
2023/12/18 04:20:01;;;;;;;23.08;14.18;;;;;;;4.27;90.00;100300.91;5032946;28;20536;-80
2023/12/18 04:22:26;;;;;;;21.60;12.82;;;;;;;4.57;89.85;100296.59;5030067;28;20041;-80
2023/12/18 04:24:51;;;;;;;25.88;14.65;;;;;;;4.33;89.25;100284.34;5028883;28;20111;-80
2023/12/18 04:27:17;;;;;;;26.50;15.23;;;;;;;4.19;91.34;100282.44;5031828;28;20048;-80
2023/12/18 04:29:43;;;;;;;22.73;15.25;;;;;;;4.27;90.59;100285.03;5047995;28;20040;-80
2023/12/18 04:32:08;;;;;;;26.55;13.02;;;;;;;4.62;89.68;100298.72;5049145;28;20112;-80
2023/12/18 04:34:34;;;;;;;22.25;13.52;;;;;;;4.35;90.39;100292.09;5045304;28;20056;-80
2023/12/18 04:36:59;;;;;;;23.77;12.98;;;;;;;4.41;90.50;100279.00;5046548;28;20557;-80
2023/12/18 04:39:24;;;;;;;23.25;13.10;;;;;;;4.68;89.87;100287.44;5031449;28;20443;-80
2023/12/18 04:41:50;;;;;;;21.92;13.27;;;;;;;4.48;89.32;100264.09;5028873;28;20056;-80
2023/12/18 04:44:15;;;;;;;22.30;12.95;;;;;;;4.66;89.83;100269.13;5013980;28;20106;-80
2023/12/18 04:46:41;;;;;;;24.58;13.55;;;;;;;4.51;90.52;100271.69;5031070;28;20486;-80
2023/12/18 04:49:07;;;;;;;20.90;13.35;;;;;;;4.43;90.22;100274.38;5030179;28;20037;-80
2023/12/18 04:51:32;;;;;;;23.48;13.32;;;;;;;4.37;90.42;100277.72;5027746;28;20056;-80
2023/12/18 04:54:00;;;;;;;19.95;12.38;;;;;;;4.63;89.64;100277.38;5011891;28;20533;-80
2023/12/18 04:56:25;;;;;;;23.88;13.40;;;;;;;4.44;89.88;100277.84;5046820;28;20021;-80
2023/12/18 04:58:51;;;;;;;22.48;11.98;;;;;;;4.34;90.55;100264.03;5026297;28;20044;-80
2023/12/18 05:01:17;;;;;;;22.17;12.75;;;;;;;4.60;90.09;100279.56;5016364;28;20032;-80
2023/12/18 05:03:42;;;;;;;20.00;12.90;;;;;;;4.33;90.15;100281.69;5041331;28;20067;-80
2023/12/18 05:06:22;;;;;;;21.83;13.02;;;;;;;4.33;90.32;100278.22;5023433;28;20615;-80
2023/12/18 05:08:48;;;;;;;22.80;12.95;;;;;;;4.50;90.05;100288.53;5023035;28;20040;-80
2023/12/18 05:11:17;;;;;;;16.85;11.63;;;;;;;4.42;89.95;100299.16;5048775;28;20492;-80
2023/12/18 05:13:42;;;;;;;21.50;13.38;;;;;;;4.49;89.25;100288.72;5029550;28;20167;-80
2023/12/18 05:16:07;;;;;;;23.05;12.90;;;;;;;4.54;89.34;100291.69;5013674;28;20132;-80
2023/12/18 05:18:33;;;;;;;23.35;12.52;;;;;;;4.54;89.14;100289.84;5031667;28;20492;-80
2023/12/18 05:20:59;;;;;;;20.08;12.40;;;;;;;4.41;89.76;100276.38;5006367;28;20086;-80
2023/12/18 05:23:24;;;;;;;24.98;13.65;;;;;;;4.17;90.05;100288.91;5010916;28;20037;-80
2023/12/18 05:25:50;;;;;;;18.90;12.52;;;;;;;4.50;89.56;100298.28;5002786;28;20047;-80
2023/12/18 05:28:16;;;;;;;20.52;12.00;;;;;;;4.43;89.37;100284.94;5029792;28;20037;-80
2023/12/18 05:30:41;;;;;;;20.10;11.75;;;;;;;4.43;89.35;100297.34;5029462;28;20484;-80
2023/12/18 05:33:06;;;;;;;22.02;12.48;;;;;;;4.50;89.34;100290.34;5021964;28;20508;-80
2023/12/18 05:35:32;;;;;;;17.08;11.63;;;;;;;4.44;88.54;100285.78;5043651;28;20103;-80
2023/12/18 05:37:57;;;;;;;19.83;12.50;;;;;;;4.46;88.53;100289.91;5014467;28;20060;-80
2023/12/18 05:40:23;;;;;;;21.60;13.75;;;;;;;4.38;89.20;100299.69;5000011;28;20056;-80
2023/12/18 05:42:48;;;;;;;20.77;12.05;;;;;;;4.39;89.30;100288.13;5049399;28;20028;-80
2023/12/18 05:45:14;;;;;;;22.20;13.48;;;;;;;4.41;88.38;100291.44;5052545;28;20400;-80
2023/12/18 05:47:39;;;;;;;17.80;11.75;;;;;;;4.24;89.11;100288.03;5048938;28;20052;-80
2023/12/18 05:50:05;;;;;;;20.88;11.40;;;;;;;4.38;88.97;100284.66;5017332;28;20562;-80
2023/12/18 05:52:30;;;;;;;19.95;13.00;;;;;;;4.30;88.67;100299.75;5039469;28;20371;-80
2023/12/18 05:54:56;;;;;;;23.05;13.65;;;;;;;4.32;88.35;100303.03;4996731;28;20047;-80
2023/12/18 05:57:21;;;;;;;26.75;15.55;;;;;;;4.05;89.35;100291.09;5043686;28;20033;-80
2023/12/18 05:59:47;;;;;;;19.85;13.13;;;;;;;4.07;89.28;100280.34;5012985;28;20035;-80
2023/12/18 06:02:12;;;;;;;23.13;12.75;;;;;;;4.20;89.21;100297.28;5008553;28;20533;-81
2023/12/18 06:04:41;;;;;;;24.25;13.75;;;;;;;4.20;88.61;100288.53;5036954;28;20475;-80
2023/12/18 06:07:07;;;;;;;21.48;11.80;;;;;;;4.14;88.56;100274.22;5036402;28;20036;-80
2023/12/18 06:09:32;;;;;;;23.92;13.55;;;;;;;4.13;89.28;100292.88;5049468;28;20128;-80
2023/12/18 06:11:57;;;;;;;19.83;12.20;;;;;;;4.21;88.63;100280.47;5029182;28;20031;-80
2023/12/18 06:14:23;;;;;;;24.90;13.70;;;;;;;4.14;88.79;100282.13;5037155;28;20041;-80
2023/12/18 06:16:48;;;;;;;21.92;12.40;;;;;;;4.36;88.80;100309.63;5015823;28;20496;-81
2023/12/18 06:19:13;;;;;;;24.88;13.80;;;;;;;4.22;89.04;100282.09;5031161;28;20503;-80
2023/12/18 06:21:43;;;;;;;23.13;13.40;;;;;;;4.33;88.89;100302.03;5049424;28;20365;-81
2023/12/18 06:24:08;;;;;;;23.73;14.60;;;;;;;4.28;88.84;100294.59;5045014;28;20034;-80
2023/12/18 06:26:33;;;;;;;22.15;13.20;;;;;;;4.35;88.41;100297.38;5017874;28;20451;-80
2023/12/18 06:28:59;;;;;;;21.17;14.40;;;;;;;4.27;88.76;100285.03;5051662;28;20280;-80
2023/12/18 06:31:24;;;;;;;21.23;11.82;;;;;;;4.27;88.66;100305.34;5034275;28;20025;-81
2023/12/18 06:33:49;;;;;;;22.92;13.32;;;;;;;4.25;89.05;100310.81;5035399;28;20033;-80
2023/12/18 06:36:19;;;;;;;24.63;13.88;;;;;;;4.07;88.46;100304.13;5018166;28;20075;-80
2023/12/18 06:38:45;;;;;;;21.65;13.55;;;;;;;4.05;88.69;100293.72;5044998;28;20033;-80
2023/12/18 06:41:10;;;;;;;23.35;14.35;;;;;;;4.31;88.42;100296.09;5031921;28;20041;-80
2023/12/18 06:43:35;;;;;;;21.33;13.18;;;;;;;4.35;87.91;100303.50;5019953;28;20055;-80
2023/12/18 06:46:01;;;;;;;24.63;13.68;;;;;;;4.33;88.67;100294.91;5002567;28;20488;-80
2023/12/18 06:48:26;;;;;;;22.35;13.60;;;;;;;4.08;88.58;100279.34;5018434;28;20044;-80
2023/12/18 06:50:52;;;;;;;22.17;13.73;;;;;;;4.09;89.39;100286.28;5034672;28;20089;-80
2023/12/18 06:53:17;;;;;;;21.02;13.30;;;;;;;4.05;88.88;100284.97;5044667;28;20111;-81
2023/12/18 06:55:43;;;;;;;19.45;12.68;;;;;;;4.23;88.60;100304.88;5027159;28;20028;-80
2023/12/18 06:58:08;;;;;;;18.42;11.93;;;;;;;4.17;88.54;100296.81;5030213;28;20542;-80
2023/12/18 07:00:34;;;;;;;23.63;14.07;;;;;;;4.16;88.02;100296.00;5029971;28;20396;-80
2023/12/18 07:02:59;;;;;;;18.65;12.95;;;;;;;4.17;88.00;100300.28;5030174;28;20021;-81
2023/12/18 07:05:26;;;;;;;19.45;12.82;;;;;;;4.09;88.13;100307.41;5017749;28;20159;-80
2023/12/18 07:07:52;;;;;;;20.83;11.90;;;;;;;4.14;87.97;100305.91;5031681;28;20032;-81
2023/12/18 07:10:17;;;;;;;20.17;12.85;;;;;;;3.98;87.72;100291.94;5051511;28;20392;-81
2023/12/18 07:12:42;;;;;;;19.92;12.98;;;;;;;4.18;88.53;100304.56;5052117;28;20400;-81
2023/12/18 07:15:08;;;;;;;23.17;13.40;;;;;;;4.06;87.38;100305.97;5048979;28;20048;-81
2023/12/18 07:17:34;;;;;;;20.92;12.95;;;;;;;4.00;88.28;100300.53;5013965;28;20060;-80
2023/12/18 07:19:59;;;;;;;18.70;12.90;;;;;;;4.01;88.06;100300.34;5017343;28;20115;-81
2023/12/18 07:22:24;;;;;;;18.40;12.93;;;;;;;3.95;88.11;100331.91;5026930;28;20130;-80
2023/12/18 07:24:50;;;;;;;20.05;13.02;;;;;;;4.19;88.17;100329.19;5034345;28;20025;-80
2023/12/18 07:27:15;;;;;;;21.90;13.52;;;;;;;4.03;87.64;100334.50;5016747;28;20056;-80
2023/12/18 07:29:40;;;;;;;21.55;12.10;;;;;;;3.97;87.88;100340.47;4996435;28;20041;-80
2023/12/18 07:32:06;;;;;;;17.42;12.35;;;;;;;4.02;87.41;100338.97;5036661;28;20033;-80
2023/12/18 07:34:31;;;;;;;18.92;11.85;;;;;;;4.04;87.99;100338.81;5036965;28;20551;-80
2023/12/18 07:36:57;;;;;;;23.17;14.15;;;;;;;3.84;87.92;100327.81;5051647;28;20051;-80
2023/12/18 07:39:22;;;;;;;19.63;12.38;;;;;;;4.02;87.98;100336.31;5015169;28;20041;-80
2023/12/18 07:41:47;;;;;;;19.98;13.82;;;;;;;4.09;87.25;100334.66;5047995;28;20025;-80
2023/12/18 07:44:13;;;;;;;18.27;12.80;;;;;;;3.96;87.55;100331.72;5027431;28;20401;-80
2023/12/18 07:46:39;;;;;;;18.85;12.57;;;;;;;4.04;87.59;100321.13;5033921;28;20036;-81
2023/12/18 07:49:04;;;;;;;17.95;12.13;;;;;;;3.73;87.02;100317.59;5014545;28;20041;-80
2023/12/18 07:51:30;;;;;;;17.95;11.75;;;;;;;3.93;87.99;100332.09;5030501;28;20025;-81
2023/12/18 07:53:55;;;;;;;23.02;12.38;;;;;;;4.01;87.73;100332.06;5037756;28;20127;-80
2023/12/18 07:56:21;;;;;;;20.83;13.18;;;;;;;3.90;88.59;100328.94;5018984;28;20075;-80
2023/12/18 07:58:47;;;;;;;21.30;12.32;;;;;;;3.62;88.44;100302.94;5048667;28;20543;-80
2023/12/18 08:01:16;;;;;;;22.50;13.73;;;;;;;3.76;88.21;100327.81;5017986;28;20060;-80
2023/12/18 08:03:42;;;;;;;18.00;12.90;;;;;;;3.63;89.01;100330.97;5044628;28;20040;-80
2023/12/18 08:06:07;;;;;;;20.90;12.65;;;;;;;3.82;88.82;100319.25;5052592;28;20029;-79
2023/12/18 08:08:32;;;;;;;19.00;12.75;;;;;;;3.92;87.64;100327.78;5033404;28;20112;-80
2023/12/18 08:10:58;;;;;;;19.25;11.70;;;;;;;3.91;88.03;100334.03;5028865;28;20032;-80
2023/12/18 08:13:23;;;;;;;18.17;12.25;;;;;;;3.92;87.97;100330.41;5019161;28;20032;-80
2023/12/18 08:15:48;;;;;;;17.35;12.00;;;;;;;4.01;87.43;100323.28;5048926;28;20061;-80
2023/12/18 08:18:15;;;;;;;21.42;14.35;;;;;;;3.68;87.83;100331.31;5046803;28;20024;-80
2023/12/18 08:20:47;;;;;;;17.23;13.35;;;;;;;3.78;87.79;100336.38;5051569;28;20748;-72
2023/12/18 08:23:12;;;;;;;22.42;12.93;;;;;;;4.08;87.22;100340.13;5061389;28;20025;-72
2023/12/18 08:25:37;;;;;;;16.67;11.27;;;;;;;4.02;87.17;100338.97;5053392;28;20052;-72
2023/12/18 08:28:03;;;;;;;20.58;12.90;;;;;;;3.97;86.77;100343.13;5048666;28;20025;-72
2023/12/18 08:30:29;;;;;;;18.65;11.85;;;;;;;3.82;87.45;100348.28;5053422;28;20033;-73
2023/12/18 08:32:54;;;;;;;17.65;12.13;;;;;;;3.93;87.61;100342.66;5040328;28;20032;-73
2023/12/18 08:35:19;;;;;;;19.02;12.02;;;;;;;4.07;87.45;100341.94;5054861;28;20029;-74
2023/12/18 08:37:45;;;;;;;19.45;13.10;;;;;;;3.99;86.61;100347.25;5059394;28;20033;-73
2023/12/18 08:40:10;;;;;;;17.48;12.10;;;;;;;4.07;87.47;100341.94;5057996;28;20020;-73
2023/12/18 08:42:36;;;;;;;15.52;10.88;;;;;;;4.01;87.62;100337.34;5064220;28;20045;-74
2023/12/18 08:45:01;;;;;;;17.42;12.65;;;;;;;4.00;87.10;100337.50;5055004;28;20025;-73
2023/12/18 08:47:26;;;;;;;21.05;12.65;;;;;;;4.00;87.21;100337.50;5054634;28;20036;-72
2023/12/18 08:49:52;;;;;;;22.00;13.27;;;;;;;3.61;88.06;100340.88;5066313;28;20055;-73
2023/12/18 08:52:18;;;;;;;18.05;13.50;;;;;;;3.68;87.55;100351.59;5071950;28;20413;-73
2023/12/18 08:54:43;;;;;;;16.27;11.95;;;;;;;3.98;87.77;100347.41;5055811;28;20037;-75
2023/12/18 08:57:08;;;;;;;17.75;13.38;;;;;;;3.74;87.84;100350.91;5061345;28;20060;-75
2023/12/18 08:59:34;;;;;;;20.15;13.55;;;;;;;3.68;88.11;100346.31;5052217;28;20024;-75
2023/12/18 09:01:59;;;;;;;21.88;13.80;;;;;;;3.64;88.53;100345.84;5055573;28;20033;-75
2023/12/18 09:04:25;;;;;;;19.65;12.98;;;;;;;3.74;88.82;100350.91;5057234;28;20033;-75
2023/12/18 09:06:50;;;;;;;17.60;12.73;;;;;;;4.07;87.47;100341.94;5054502;28;20024;-75
2023/12/18 09:09:16;;;;;;;21.55;13.52;;;;;;;3.85;88.00;100342.66;5053893;28;20033;-75
2023/12/18 09:11:41;;;;;;;19.67;12.05;;;;;;;3.87;87.99;100345.13;5054112;28;20082;-75
2023/12/18 09:14:07;;;;;;;18.63;12.02;;;;;;;4.17;87.04;100347.81;5060280;28;20095;-75
2023/12/18 09:16:32;;;;;;;17.48;11.68;;;;;;;3.83;88.42;100344.63;5054993;28;20390;-75
2023/12/18 09:18:58;;;;;;;20.05;12.10;;;;;;;3.97;87.70;100341.31;5048196;28;20037;-75
2023/12/18 09:21:23;;;;;;;18.98;12.68;;;;;;;4.04;88.19;100346.75;5055662;28;20024;-75
2023/12/18 09:23:49;;;;;;;18.67;11.63;;;;;;;4.13;87.35;100341.25;5056778;28;20042;-75
2023/12/18 09:26:15;;;;;;;15.40;11.77;;;;;;;4.13;86.71;100341.25;5060166;28;20066;-75
2023/12/18 09:28:41;;;;;;;18.23;11.45;;;;;;;4.09;86.76;100328.53;5056805;28;20032;-75
2023/12/18 09:31:06;;;;;;;18.15;11.93;;;;;;;4.12;86.62;100328.22;5056716;28;20033;-75
2023/12/18 09:33:33;;;;;;;18.05;12.10;;;;;;;4.04;86.92;100339.63;5032374;28;20030;-76
2023/12/18 09:35:59;;;;;;;15.63;11.00;;;;;;;4.07;87.56;100336.66;5056647;28;20060;-76
2023/12/18 09:38:25;;;;;;;19.20;12.68;;;;;;;3.96;86.88;100322.97;5073439;28;20090;-75
2023/12/18 09:40:51;;;;;;;17.92;12.13;;;;;;;4.02;86.74;100323.13;5065984;28;20065;-76
2023/12/18 09:43:17;;;;;;;17.27;12.13;;;;;;;4.07;86.86;100309.41;5034455;28;20025;-75
2023/12/18 09:45:45;;;;;;;18.83;12.65;;;;;;;3.85;86.83;100305.69;5032925;28;20452;-76
2023/12/18 09:48:11;;;;;;;18.10;11.80;;;;;;;3.92;87.90;100311.94;5045904;28;20024;-76
2023/12/18 09:50:36;;;;;;;21.45;11.20;;;;;;;4.10;87.33;100309.06;5053087;28;20040;-76
2023/12/18 09:53:07;;;;;;;14.85;11.30;;;;;;;4.16;86.58;100303.91;5051627;28;20578;-76
2023/12/18 09:55:33;;;;;;;18.65;11.98;;;;;;;4.08;86.60;100303.97;5050024;28;20071;-76
2023/12/18 09:58:00;;;;;;;18.67;12.27;;;;;;;4.15;86.69;100304.09;5051797;28;20060;-76
2023/12/18 10:00:26;;;;;;;16.40;11.65;;;;;;;4.02;86.42;100295.91;5049346;28;20017;-76
2023/12/18 10:02:53;;;;;;;13.98;10.75;;;;;;;4.24;86.44;100306.53;5034647;28;20091;-76
2023/12/18 10:05:18;;;;;;;18.95;12.48;;;;;;;4.17;86.24;100296.81;5032004;28;20561;-76
2023/12/18 10:07:45;;;;;;;16.15;12.15;;;;;;;4.06;87.00;100284.00;5040478;28;20030;-76
2023/12/18 10:10:10;;;;;;;17.35;12.05;;;;;;;4.17;86.69;100289.69;5046211;28;20056;-76
2023/12/18 10:12:38;;;;;;;15.85;10.95;;;;;;;4.15;86.54;100286.41;5052479;28;20067;-76
2023/12/18 10:15:14;;;;;;;15.13;11.32;;;;;;;4.15;86.13;100281.13;5052790;28;20478;-76
2023/12/18 10:17:41;;;;;;;17.83;11.55;;;;;;;4.16;86.49;100276.66;5032824;28;20040;-76
2023/12/18 10:20:07;;;;;;;18.10;11.65;;;;;;;4.17;86.22;100271.19;5043705;28;20047;-76
2023/12/18 10:22:33;;;;;;;18.25;11.25;;;;;;;4.13;86.28;100261.97;5051207;28;20036;-76
2023/12/18 10:25:07;;;;;;;15.35;10.68;;;;;;;4.21;86.60;100261.13;5045392;28;20051;-76
2023/12/18 10:27:33;;;;;;;14.27;10.13;;;;;;;4.22;86.13;100254.84;5041853;28;20025;-76
2023/12/18 10:30:00;;;;;;;19.80;12.07;;;;;;;4.03;86.18;100248.16;5052524;28;20195;-76
2023/12/18 10:32:29;;;;;;;17.33;10.32;;;;;;;4.08;86.47;100242.38;5048265;28;20445;-73
2023/12/18 10:34:55;;;;;;;16.75;10.52;;;;;;;4.12;86.28;100248.94;5040328;28;20028;-73
2023/12/18 10:37:25;;;;;;;19.55;10.88;;;;;;;4.10;87.14;100243.84;5042118;28;20033;-73
2023/12/18 10:39:53;;;;;;;18.65;10.32;;;;;;;4.12;86.08;100247.13;5052117;28;20056;-73
2023/12/18 10:42:50;;;;;;;16.52;10.50;;;;;;;4.07;86.65;100246.00;5049400;28;20530;-73
2023/12/18 10:45:16;;;;;;;14.27;9.82;;;;;;;4.14;86.11;100239.03;5031905;28;20324;-73
2023/12/18 10:47:42;;;;;;;14.40;10.02;;;;;;;4.11;87.18;100234.91;5033824;28;20498;-73
2023/12/18 10:50:10;;;;;;;17.63;11.57;;;;;;;4.05;86.48;100229.50;5031878;28;20041;-73
2023/12/18 10:52:38;;;;;;;16.10;10.02;;;;;;;4.10;86.76;100235.09;5036723;28;20358;-73
2023/12/18 10:55:05;;;;;;;13.73;10.13;;;;;;;4.14;86.71;100244.31;5041998;28;20029;-73
2023/12/18 10:57:32;;;;;;;16.40;11.07;;;;;;;4.14;87.65;100231.09;5053499;28;20371;-73
2023/12/18 10:59:59;;;;;;;20.48;11.63;;;;;;;4.14;86.39;100233.75;5052465;28;20025;-73
2023/12/18 11:02:26;;;;;;;17.88;11.50;;;;;;;4.18;86.64;100233.22;5045572;28;20064;-73
2023/12/18 11:04:53;;;;;;;19.65;10.75;;;;;;;4.23;87.15;100235.34;5040317;28;20036;-73
2023/12/18 11:07:19;;;;;;;16.08;10.48;;;;;;;4.33;87.22;100218.28;5043280;28;20079;-74
2023/12/18 11:09:46;;;;;;;16.98;9.98;;;;;;;4.22;86.58;100218.66;5020078;28;20033;-73